createdAt,value
2023-01-20T00:00:47.890Z,-0.90
2023-01-20T00:04:51.752Z,-0.80
2023-01-20T00:08:54.172Z,-0.80
2023-01-20T00:12:54.324Z,-0.80
2023-01-20T00:16:54.458Z,-0.80
2023-01-20T00:20:57.322Z,-0.80
2023-01-20T00:24:57.463Z,-0.80
2023-01-20T00:28:59.239Z,-0.80
2023-01-20T00:32:59.357Z,-0.80
2023-01-20T00:37:02.148Z,-0.80
2023-01-20T00:41:02.499Z,-0.80
2023-01-20T00:45:02.771Z,-0.80
2023-01-20T00:49:02.962Z,-0.80
2023-01-20T00:53:05.713Z,-0.80
2023-01-20T00:57:06.033Z,-0.70
2023-01-20T01:01:06.349Z,-0.70
2023-01-20T01:05:06.755Z,-0.80
2023-01-20T01:09:09.759Z,-0.80
2023-01-20T01:13:10.971Z,-0.70
2023-01-20T01:17:11.130Z,-0.80
2023-01-20T01:21:14.514Z,-0.80
2023-01-20T01:25:17.497Z,-0.70
2023-01-20T01:29:17.553Z,-0.80
2023-01-20T01:33:17.821Z,-0.80
2023-01-20T01:37:18.090Z,-0.80
2023-01-20T01:41:21.300Z,-0.80
2023-01-20T01:45:27.665Z,-0.80
2023-01-20T01:49:34.269Z,-0.70
2023-01-20T01:53:45.358Z,-0.70
2023-01-20T01:57:49.876Z,-0.70
2023-01-20T02:01:55.126Z,-0.70
2023-01-20T02:05:57.783Z,-0.60
2023-01-20T02:09:57.995Z,-0.60
2023-01-20T02:14:01.342Z,-0.60
2023-01-20T02:18:24.478Z,-0.60
2023-01-20T02:22:39.051Z,-0.60
2023-01-20T02:27:04.683Z,-0.60
2023-01-20T02:31:36.908Z,-0.60
2023-01-20T02:35:46.984Z,-0.50
2023-01-20T02:40:17.047Z,-0.50
2023-01-20T02:44:31.718Z,-0.50
2023-01-20T02:48:39.885Z,-0.60
2023-01-20T02:52:47.230Z,-0.50
2023-01-20T02:56:49.397Z,-0.50
2023-01-20T03:00:56.747Z,-0.50
2023-01-20T03:05:07.604Z,-0.50
2023-01-20T03:09:16.031Z,-0.50
2023-01-20T03:13:25.157Z,-0.60
2023-01-20T03:17:25.994Z,-0.60
2023-01-20T03:21:26.787Z,-0.60
2023-01-20T03:25:30.038Z,-0.60
2023-01-20T03:29:31.111Z,-0.70
2023-01-20T03:33:31.535Z,-0.70
2023-01-20T03:37:32.001Z,-0.70
2023-01-20T03:41:51.095Z,-0.80
2023-01-20T03:46:02.672Z,-0.80
2023-01-20T03:50:12.977Z,-0.70
2023-01-20T03:54:21.486Z,-0.70
2023-01-20T03:58:30.122Z,-0.80
2023-01-20T04:02:31.541Z,-0.90
2023-01-20T04:06:34.931Z,-0.90
2023-01-20T04:10:39.793Z,-1.00
2023-01-20T04:14:42.743Z,-1.10
2023-01-20T04:18:49.613Z,-1.20
2023-01-20T04:22:56.107Z,-1.20
2023-01-20T04:26:56.379Z,-1.10
2023-01-20T04:30:59.330Z,-1.10
2023-01-20T04:34:59.631Z,-1.00
2023-01-20T04:38:59.785Z,-1.00
2023-01-20T04:42:59.989Z,-1.00
2023-01-20T04:47:03.010Z,-0.90
2023-01-20T04:51:07.491Z,-0.90
2023-01-20T04:55:08.580Z,-0.90
2023-01-20T04:59:08.727Z,-0.90
2023-01-20T05:03:11.533Z,-0.90
2023-01-20T05:07:11.669Z,-0.90
2023-01-20T05:11:11.797Z,-0.80
2023-01-20T05:15:13.716Z,-0.80
2023-01-20T05:19:17.835Z,-0.80
2023-01-20T05:23:18.757Z,-0.80
2023-01-20T05:27:19.011Z,-0.80
2023-01-20T05:31:19.345Z,-0.80
2023-01-20T05:35:22.363Z,-0.80
2023-01-20T05:39:22.880Z,-0.80
2023-01-20T05:43:23.047Z,-0.80
2023-01-20T05:47:23.262Z,-0.80
2023-01-20T05:51:26.017Z,-0.80
2023-01-20T05:55:26.386Z,-0.80
2023-01-20T05:59:27.214Z,-0.70
2023-01-20T06:03:27.311Z,-0.70
2023-01-20T06:07:30.661Z,-0.60
2023-01-20T06:11:30.860Z,-0.60
2023-01-20T06:15:31.093Z,-0.50
2023-01-20T06:19:31.375Z,-0.50
2023-01-20T06:23:34.171Z,-0.40
2023-01-20T06:27:34.420Z,-0.40
2023-01-20T06:31:34.901Z,-0.40
2023-01-20T06:35:34.996Z,-0.40
2023-01-20T06:39:37.832Z,-0.50
2023-01-20T06:43:40.243Z,-0.50
2023-01-20T06:47:40.455Z,-0.60
2023-01-20T06:51:41.980Z,-0.60
2023-01-20T06:55:44.743Z,-0.60
2023-01-20T06:59:44.966Z,-0.60
2023-01-20T07:03:46.128Z,-0.60
2023-01-20T07:07:47.680Z,-0.50
2023-01-20T07:11:50.457Z,-0.50
2023-01-20T07:15:50.713Z,-0.50
2023-01-20T07:19:50.864Z,-0.50
2023-01-20T07:23:52.385Z,-0.50
2023-01-20T07:27:55.131Z,-0.40
2023-01-20T07:31:55.331Z,-0.40
2023-01-20T07:35:57.239Z,-0.30
2023-01-20T07:40:01.186Z,-0.20
2023-01-20T07:44:04.844Z,-0.10
2023-01-20T07:48:06.999Z,0.00
2023-01-20T07:52:08.618Z,0.00
2023-01-20T07:56:13.186Z,0.10
2023-01-20T08:00:18.314Z,0.10
2023-01-20T08:04:18.761Z,0.20
2023-01-20T08:08:19.204Z,0.20
2023-01-20T08:12:20.063Z,0.30
2023-01-20T08:16:24.007Z,0.40
2023-01-20T08:20:25.026Z,0.40
2023-01-20T08:24:32.096Z,0.40
2023-01-20T08:29:17.898Z,0.50
2023-01-20T08:34:01.588Z,0.60
2023-01-20T08:38:11.752Z,0.70
2023-01-20T08:42:32.122Z,0.70
2023-01-20T08:46:45.402Z,0.70
2023-01-20T08:50:50.435Z,0.80
2023-01-20T08:54:56.142Z,0.80
2023-01-20T08:59:07.490Z,0.90
2023-01-20T09:03:08.913Z,0.90
2023-01-20T09:07:14.785Z,1.00
2023-01-20T09:11:18.327Z,1.00
2023-01-20T09:15:20.952Z,1.10
2023-01-20T09:19:21.284Z,1.20
2023-01-20T09:23:24.801Z,1.30
2023-01-20T09:27:25.501Z,1.40
2023-01-20T09:31:26.346Z,1.60
2023-01-20T09:35:27.112Z,1.70
2023-01-20T09:39:42.424Z,1.80
2023-01-20T09:43:58.969Z,1.80
2023-01-20T09:48:15.517Z,1.80
2023-01-20T09:52:42.589Z,1.90
2023-01-20T09:56:55.523Z,1.90
2023-01-20T10:01:09.692Z,1.80
2023-01-20T10:05:17.924Z,1.50
2023-01-20T10:09:29.857Z,1.60
2023-01-20T10:13:41.587Z,1.70
2023-01-20T10:17:52.726Z,2.00
2023-01-20T10:22:02.941Z,2.20
2023-01-20T10:26:12.342Z,2.40
2023-01-20T10:30:32.288Z,2.50
2023-01-20T10:34:43.373Z,2.90
2023-01-20T10:38:58.621Z,3.20
2023-01-20T10:43:20.083Z,3.40
2023-01-20T10:48:07.442Z,3.60
2023-01-20T10:53:13.611Z,4.20
2023-01-20T10:57:19.092Z,4.50
2023-01-20T11:01:22.470Z,4.60
2023-01-20T11:05:37.045Z,4.60
2023-01-20T11:09:40.005Z,4.50
2023-01-20T11:13:40.487Z,4.60
2023-01-20T11:17:42.021Z,4.80
2023-01-20T11:21:44.899Z,5.20
2023-01-20T11:25:45.089Z,5.40
2023-01-20T11:29:51.818Z,5.70
2023-01-20T11:34:03.906Z,5.80
2023-01-20T11:38:27.832Z,6.00
2023-01-20T11:42:30.800Z,5.70
2023-01-20T11:46:35.232Z,5.40
2023-01-20T11:50:39.088Z,5.10
2023-01-20T11:54:41.821Z,4.80
2023-01-20T11:58:55.683Z,4.80
2023-01-20T12:03:02.237Z,4.80
2023-01-20T12:07:08.825Z,4.60
2023-01-20T12:11:15.299Z,4.20
2023-01-20T12:15:22.439Z,4.20
2023-01-20T12:19:32.727Z,4.70
2023-01-20T12:23:48.297Z,5.20
2023-01-20T12:27:56.191Z,5.50
2023-01-20T12:31:56.509Z,5.50
2023-01-20T12:36:43.425Z,5.20
2023-01-20T12:40:51.461Z,5.30
2023-01-20T12:45:01.134Z,5.80
2023-01-20T12:49:39.143Z,6.10
2023-01-20T12:54:12.903Z,6.50
2023-01-20T12:58:33.993Z,5.70
2023-01-20T13:03:40.037Z,5.20
2023-01-20T13:08:03.923Z,4.40
2023-01-20T13:12:34.246Z,3.90
2023-01-20T13:16:43.416Z,3.70
2023-01-20T13:20:48.332Z,3.60
2023-01-20T13:24:55.148Z,3.40
2023-01-20T13:29:00.823Z,3.30
2023-01-20T13:33:16.709Z,3.20
2023-01-20T13:37:31.502Z,3.10
2023-01-20T13:41:53.877Z,3.10
2023-01-20T13:46:47.392Z,3.00
2023-01-20T13:50:50.286Z,2.90
2023-01-20T13:54:51.588Z,2.90
2023-01-20T13:58:54.744Z,2.90
2023-01-20T14:02:55.429Z,2.50
2023-01-20T14:06:57.521Z,2.30
2023-01-20T14:11:18.101Z,2.30
2023-01-20T14:15:40.099Z,2.10
2023-01-20T14:19:42.014Z,2.00
2023-01-20T14:23:42.574Z,2.00
2023-01-20T14:27:47.264Z,2.00
2023-01-20T14:31:50.182Z,2.00
2023-01-20T14:35:50.419Z,1.90
2023-01-20T14:39:52.605Z,1.90
2023-01-20T14:43:52.849Z,1.80
2023-01-20T14:47:56.103Z,1.80
2023-01-20T14:51:57.009Z,1.70
2023-01-20T14:56:04.755Z,1.60
2023-01-20T15:00:23.690Z,1.50
2023-01-20T15:04:26.871Z,1.30
2023-01-20T15:08:30.008Z,1.20
2023-01-20T15:12:43.852Z,1.10
2023-01-20T15:16:53.762Z,0.90
2023-01-20T15:21:16.366Z,0.90
2023-01-20T15:25:17.492Z,0.80
2023-01-20T15:29:24.951Z,0.80
2023-01-20T15:33:26.598Z,0.70
2023-01-20T15:37:29.410Z,0.70
2023-01-20T15:41:29.646Z,0.60
2023-01-20T15:45:30.860Z,0.50
2023-01-20T15:49:31.056Z,0.40
2023-01-20T15:53:33.862Z,0.30
2023-01-20T15:57:34.073Z,0.20
2023-01-20T16:01:34.707Z,0.20
2023-01-20T16:05:34.890Z,0.20
2023-01-20T16:09:38.737Z,0.20
2023-01-20T16:13:38.920Z,0.10
2023-01-20T16:17:39.054Z,0.00
2023-01-20T16:21:39.190Z,-0.30
2023-01-20T16:25:43.061Z,-0.40
2023-01-20T16:29:43.869Z,-0.60
2023-01-20T16:33:44.466Z,-0.80
2023-01-20T16:37:45.832Z,-0.90
2023-01-20T16:41:51.492Z,-1.00
2023-01-20T16:45:55.344Z,-1.00
2023-01-20T16:49:55.935Z,-1.10
2023-01-20T16:53:58.263Z,-1.20
2023-01-20T16:58:01.000Z,-1.30
2023-01-20T17:02:01.724Z,-1.40
2023-01-20T17:06:01.858Z,-1.40
2023-01-20T17:10:02.030Z,-1.40
2023-01-20T17:14:07.779Z,-1.60
2023-01-20T17:18:08.126Z,-1.60
2023-01-20T17:22:08.335Z,-1.70
2023-01-20T17:26:10.277Z,-1.90
2023-01-20T17:30:15.135Z,-2.00
2023-01-20T17:34:15.501Z,-2.10
2023-01-20T17:38:15.858Z,-2.00
2023-01-20T17:42:17.606Z,-2.00
2023-01-20T17:46:23.070Z,-2.00
2023-01-20T17:50:23.375Z,-2.00
2023-01-20T17:54:23.591Z,-2.00
2023-01-20T17:58:23.705Z,-2.00
2023-01-20T18:02:26.494Z,-2.00
2023-01-20T18:06:29.567Z,-2.00
2023-01-20T18:10:29.982Z,-2.20
2023-01-20T18:14:30.152Z,-2.20
2023-01-20T18:18:33.512Z,-2.30
2023-01-20T18:22:33.935Z,-2.50
2023-01-20T18:26:38.087Z,-2.60
2023-01-20T18:30:38.493Z,-2.60
2023-01-20T18:34:41.351Z,-2.70
2023-01-20T18:38:43.477Z,-2.80
2023-01-20T18:42:45.199Z,-2.80
2023-01-20T18:46:45.907Z,-2.80
2023-01-20T18:50:48.671Z,-2.90
2023-01-20T18:54:49.437Z,-2.90
2023-01-20T18:58:49.906Z,-2.90
2023-01-20T19:02:53.340Z,-2.90
2023-01-20T19:06:56.134Z,-2.90
2023-01-20T19:10:56.410Z,-2.90
2023-01-20T19:14:56.567Z,-3.00
2023-01-20T19:18:59.842Z,-3.00
2023-01-20T19:23:02.816Z,-3.00
2023-01-20T19:27:03.819Z,-3.00
2023-01-20T19:31:09.498Z,-3.00
2023-01-20T19:35:11.530Z,-3.00
2023-01-20T19:39:14.408Z,-3.00
2023-01-20T19:43:14.810Z,-3.10
2023-01-20T19:47:14.967Z,-3.20
2023-01-20T19:51:19.513Z,-3.20
2023-01-20T19:55:22.392Z,-3.10
2023-01-20T19:59:22.724Z,-3.10
2023-01-20T20:03:22.964Z,-3.20
2023-01-20T20:07:23.948Z,-3.20
2023-01-20T20:11:26.913Z,-3.20
2023-01-20T20:15:27.187Z,-3.30
2023-01-20T20:19:28.129Z,-3.50
2023-01-20T20:23:29.968Z,-3.60
2023-01-20T20:27:32.799Z,-3.70
2023-01-20T20:31:35.931Z,-3.70
2023-01-20T20:35:38.925Z,-3.80
2023-01-20T20:39:39.334Z,-3.90
2023-01-20T20:43:42.438Z,-3.90
2023-01-20T20:47:42.669Z,-3.90
2023-01-20T20:51:42.841Z,-3.80
2023-01-20T20:55:43.719Z,-3.90
2023-01-20T20:59:58.548Z,-3.90
2023-01-20T21:04:00.840Z,-4.00
2023-01-20T21:08:01.118Z,-4.10
2023-01-20T21:12:01.391Z,-4.20
2023-01-20T21:16:09.785Z,-4.30
2023-01-20T21:20:12.988Z,-4.30
2023-01-20T21:24:14.801Z,-4.30
2023-01-20T21:28:16.689Z,-4.40
2023-01-20T21:32:19.829Z,-4.40
2023-01-20T21:36:19.987Z,-4.40
2023-01-20T21:40:20.692Z,-4.30
2023-01-20T21:44:34.190Z,-4.30
2023-01-20T21:48:49.222Z,-4.20
2023-01-20T21:52:49.981Z,-4.20
2023-01-20T21:56:51.297Z,-4.20
2023-01-20T22:00:51.632Z,-4.20
2023-01-20T22:04:54.505Z,-4.20
2023-01-20T22:08:54.679Z,-4.20
2023-01-20T22:12:54.851Z,-4.30
2023-01-20T22:16:55.082Z,-4.30
2023-01-20T22:20:57.881Z,-4.30
2023-01-20T22:24:58.090Z,-4.40
2023-01-20T22:28:58.241Z,-4.40
2023-01-20T22:32:58.482Z,-4.50
2023-01-20T22:37:01.805Z,-4.50
2023-01-20T22:41:07.154Z,-4.60
2023-01-20T22:45:08.982Z,-4.60
2023-01-20T22:49:09.402Z,-4.70
2023-01-20T22:53:12.258Z,-4.70
2023-01-20T22:57:13.378Z,-4.80
2023-01-20T23:01:16.702Z,-4.90
2023-01-20T23:05:17.270Z,-4.90
2023-01-20T23:09:20.046Z,-4.80
2023-01-20T23:13:21.277Z,-4.90
2023-01-20T23:17:21.420Z,-4.90
2023-01-20T23:21:22.401Z,-4.90
2023-01-20T23:25:25.181Z,-4.90
2023-01-20T23:29:25.302Z,-4.90
2023-01-20T23:33:25.413Z,-4.90
2023-01-20T23:37:25.546Z,-4.80
2023-01-20T23:41:28.421Z,-4.80
2023-01-20T23:45:28.947Z,-4.70
2023-01-20T23:49:29.141Z,-4.70
2023-01-20T23:53:32.266Z,-4.70
2023-01-20T23:57:35.039Z,-4.70
